sensor_id;sensor_type;location;lat;lon;timestamp;temperature;humidity
28247;DHT22;66191;53.178;22.058;2023-04-30T00:02:12;12.80;67.70
28247;DHT22;66191;53.178;22.058;2023-04-30T00:04:43;12.70;67.80
28247;DHT22;66191;53.178;22.058;2023-04-30T00:07:14;12.70;68.20
28247;DHT22;66191;53.178;22.058;2023-04-30T00:09:47;12.70;68.30
28247;DHT22;66191;53.178;22.058;2023-04-30T00:12:18;12.60;68.50
28247;DHT22;66191;53.178;22.058;2023-04-30T00:14:49;12.60;68.60
28247;DHT22;66191;53.178;22.058;2023-04-30T00:17:23;12.60;68.90
28247;DHT22;66191;53.178;22.058;2023-04-30T00:19:54;12.50;69.00
28247;DHT22;66191;53.178;22.058;2023-04-30T00:22:25;12.40;69.30
28247;DHT22;66191;53.178;22.058;2023-04-30T00:24:58;12.40;69.70
28247;DHT22;66191;53.178;22.058;2023-04-30T00:27:29;12.40;70.00
28247;DHT22;66191;53.178;22.058;2023-04-30T00:30:04;12.40;70.10
28247;DHT22;66191;53.178;22.058;2023-04-30T00:32:35;12.30;70.60
28247;DHT22;66191;53.178;22.058;2023-04-30T00:35:06;12.30;70.80
28247;DHT22;66191;53.178;22.058;2023-04-30T00:37:38;12.20;71.20
28247;DHT22;66191;53.178;22.058;2023-04-30T00:40:11;12.20;71.10
28247;DHT22;66191;53.178;22.058;2023-04-30T00:42:43;12.20;71.30
28247;DHT22;66191;53.178;22.058;2023-04-30T00:45:15;12.20;71.60
28247;DHT22;66191;53.178;22.058;2023-04-30T00:47:49;12.20;71.50
28247;DHT22;66191;53.178;22.058;2023-04-30T00:50:19;12.10;71.60
28247;DHT22;66191;53.178;22.058;2023-04-30T00:52:51;12.20;71.90
28247;DHT22;66191;53.178;22.058;2023-04-30T00:55:24;12.10;72.10
28247;DHT22;66191;53.178;22.058;2023-04-30T00:57:56;12.10;72.00
28247;DHT22;66191;53.178;22.058;2023-04-30T01:00:27;12.10;72.10
28247;DHT22;66191;53.178;22.058;2023-04-30T01:02:59;12.10;72.20
28247;DHT22;66191;53.178;22.058;2023-04-30T01:05:30;12.10;72.20
28247;DHT22;66191;53.178;22.058;2023-04-30T01:08:00;12.00;72.50
28247;DHT22;66191;53.178;22.058;2023-04-30T01:10:35;12.00;72.70
28247;DHT22;66191;53.178;22.058;2023-04-30T01:13:11;12.00;72.90
28247;DHT22;66191;53.178;22.058;2023-04-30T01:15:44;12.00;73.20
28247;DHT22;66191;53.178;22.058;2023-04-30T01:18:21;12.00;73.40
28247;DHT22;66191;53.178;22.058;2023-04-30T01:20:54;11.90;73.90
28247;DHT22;66191;53.178;22.058;2023-04-30T01:23:28;11.90;74.10
28247;DHT22;66191;53.178;22.058;2023-04-30T01:26:13;11.90;74.00
28247;DHT22;66191;53.178;22.058;2023-04-30T01:28:48;11.80;74.30
28247;DHT22;66191;53.178;22.058;2023-04-30T01:31:19;11.90;74.30
28247;DHT22;66191;53.178;22.058;2023-04-30T01:33:50;11.80;74.50
28247;DHT22;66191;53.178;22.058;2023-04-30T01:36:35;11.80;74.90
28247;DHT22;66191;53.178;22.058;2023-04-30T01:39:14;11.80;75.10
28247;DHT22;66191;53.178;22.058;2023-04-30T01:41:51;11.70;75.50
28247;DHT22;66191;53.178;22.058;2023-04-30T01:44:33;11.70;75.80
28247;DHT22;66191;53.178;22.058;2023-04-30T01:47:08;11.70;76.20
28247;DHT22;66191;53.178;22.058;2023-04-30T01:49:41;11.70;76.50
28247;DHT22;66191;53.178;22.058;2023-04-30T01:52:16;11.60;77.00
28247;DHT22;66191;53.178;22.058;2023-04-30T01:54:48;11.60;77.10
28247;DHT22;66191;53.178;22.058;2023-04-30T01:57:25;11.60;77.40
28247;DHT22;66191;53.178;22.058;2023-04-30T02:00:00;11.60;77.60
28247;DHT22;66191;53.178;22.058;2023-04-30T02:02:39;11.60;78.00
28247;DHT22;66191;53.178;22.058;2023-04-30T02:05:10;11.60;78.10
28247;DHT22;66191;53.178;22.058;2023-04-30T02:07:41;11.60;78.50
28247;DHT22;66191;53.178;22.058;2023-04-30T02:10:15;11.60;79.00
28247;DHT22;66191;53.178;22.058;2023-04-30T02:12:45;11.60;78.80
28247;DHT22;66191;53.178;22.058;2023-04-30T02:15:19;11.50;79.70
28247;DHT22;66191;53.178;22.058;2023-04-30T02:17:50;11.50;79.30
28247;DHT22;66191;53.178;22.058;2023-04-30T02:20:21;11.50;78.80
28247;DHT22;66191;53.178;22.058;2023-04-30T02:22:51;11.50;78.90
28247;DHT22;66191;53.178;22.058;2023-04-30T02:25:22;11.50;79.20
28247;DHT22;66191;53.178;22.058;2023-04-30T02:27:53;11.50;79.90
28247;DHT22;66191;53.178;22.058;2023-04-30T02:30:29;11.50;79.60
28247;DHT22;66191;53.178;22.058;2023-04-30T02:33:00;11.50;79.80
28247;DHT22;66191;53.178;22.058;2023-04-30T02:35:32;11.50;80.10
28247;DHT22;66191;53.178;22.058;2023-04-30T02:38:02;11.50;80.20
28247;DHT22;66191;53.178;22.058;2023-04-30T02:40:33;11.50;80.30
28247;DHT22;66191;53.178;22.058;2023-04-30T02:43:05;11.50;80.40
28247;DHT22;66191;53.178;22.058;2023-04-30T02:45:38;11.50;80.80
28247;DHT22;66191;53.178;22.058;2023-04-30T02:48:09;11.50;81.30
28247;DHT22;66191;53.178;22.058;2023-04-30T02:50:40;11.50;81.50
28247;DHT22;66191;53.178;22.058;2023-04-30T02:53:10;11.50;82.00
28247;DHT22;66191;53.178;22.058;2023-04-30T02:55:42;11.50;82.30
28247;DHT22;66191;53.178;22.058;2023-04-30T02:58:12;11.50;82.70
28247;DHT22;66191;53.178;22.058;2023-04-30T03:00:46;11.50;83.60
28247;DHT22;66191;53.178;22.058;2023-04-30T03:03:16;11.40;84.60
28247;DHT22;66191;53.178;22.058;2023-04-30T03:05:47;11.30;85.80
28247;DHT22;66191;53.178;22.058;2023-04-30T03:08:19;11.20;87.40
28247;DHT22;66191;53.178;22.058;2023-04-30T03:10:50;11.20;89.00
28247;DHT22;66191;53.178;22.058;2023-04-30T03:13:21;11.00;89.50
28247;DHT22;66191;53.178;22.058;2023-04-30T03:16:00;11.00;90.20
28247;DHT22;66191;53.178;22.058;2023-04-30T03:18:31;10.90;90.60
28247;DHT22;66191;53.178;22.058;2023-04-30T03:21:03;10.90;91.00
28247;DHT22;66191;53.178;22.058;2023-04-30T03:23:35;10.80;91.40
28247;DHT22;66191;53.178;22.058;2023-04-30T03:26:06;10.80;92.20
28247;DHT22;66191;53.178;22.058;2023-04-30T03:28:37;10.80;93.40
28247;DHT22;66191;53.178;22.058;2023-04-30T03:31:11;10.70;95.00
28247;DHT22;66191;53.178;22.058;2023-04-30T03:33:42;10.60;95.70
28247;DHT22;66191;53.178;22.058;2023-04-30T03:36:14;10.60;96.10
28247;DHT22;66191;53.178;22.058;2023-04-30T03:38:44;10.50;95.80
28247;DHT22;66191;53.178;22.058;2023-04-30T03:41:16;10.40;95.90
28247;DHT22;66191;53.178;22.058;2023-04-30T03:43:47;10.40;96.00
28247;DHT22;66191;53.178;22.058;2023-04-30T03:46:20;10.40;95.90
28247;DHT22;66191;53.178;22.058;2023-04-30T03:48:51;10.30;95.50
28247;DHT22;66191;53.178;22.058;2023-04-30T03:51:23;10.30;94.90
28247;DHT22;66191;53.178;22.058;2023-04-30T03:53:54;10.30;94.30
28247;DHT22;66191;53.178;22.058;2023-04-30T03:56:25;10.30;93.80
28247;DHT22;66191;53.178;22.058;2023-04-30T03:58:56;10.20;93.60
28247;DHT22;66191;53.178;22.058;2023-04-30T04:01:32;10.20;93.60
28247;DHT22;66191;53.178;22.058;2023-04-30T04:04:03;10.20;93.40
28247;DHT22;66191;53.178;22.058;2023-04-30T04:06:34;10.10;93.40
28247;DHT22;66191;53.178;22.058;2023-04-30T04:09:04;10.10;93.30
28247;DHT22;66191;53.178;22.058;2023-04-30T04:11:35;10.10;93.40
28247;DHT22;66191;53.178;22.058;2023-04-30T04:14:06;10.00;93.30
28247;DHT22;66191;53.178;22.058;2023-04-30T04:16:40;10.00;93.30
28247;DHT22;66191;53.178;22.058;2023-04-30T04:19:11;9.90;93.40
28247;DHT22;66191;53.178;22.058;2023-04-30T04:21:43;9.90;93.50
28247;DHT22;66191;53.178;22.058;2023-04-30T04:24:15;9.80;93.60
28247;DHT22;66191;53.178;22.058;2023-04-30T04:26:46;9.80;93.70
28247;DHT22;66191;53.178;22.058;2023-04-30T04:29:17;9.80;93.60
28247;DHT22;66191;53.178;22.058;2023-04-30T04:31:50;9.80;93.60
28247;DHT22;66191;53.178;22.058;2023-04-30T04:34:22;9.80;93.50
28247;DHT22;66191;53.178;22.058;2023-04-30T04:36:56;9.90;93.50
28247;DHT22;66191;53.178;22.058;2023-04-30T04:39:28;9.90;93.70
28247;DHT22;66191;53.178;22.058;2023-04-30T04:41:59;9.90;93.80
28247;DHT22;66191;53.178;22.058;2023-04-30T04:44:29;9.90;93.90
28247;DHT22;66191;53.178;22.058;2023-04-30T04:47:03;9.90;94.30
28247;DHT22;66191;53.178;22.058;2023-04-30T04:49:34;9.90;94.20
28247;DHT22;66191;53.178;22.058;2023-04-30T04:52:05;9.90;94.10
28247;DHT22;66191;53.178;22.058;2023-04-30T04:54:36;9.90;94.00
28247;DHT22;66191;53.178;22.058;2023-04-30T04:57:06;9.80;93.90
28247;DHT22;66191;53.178;22.058;2023-04-30T04:59:37;9.80;93.80
28247;DHT22;66191;53.178;22.058;2023-04-30T05:02:11;9.80;93.90
28247;DHT22;66191;53.178;22.058;2023-04-30T05:04:42;9.80;94.00
28247;DHT22;66191;53.178;22.058;2023-04-30T05:07:13;9.80;94.00
28247;DHT22;66191;53.178;22.058;2023-04-30T05:09:44;9.80;94.10
28247;DHT22;66191;53.178;22.058;2023-04-30T05:12:15;9.80;94.30
28247;DHT22;66191;53.178;22.058;2023-04-30T05:14:46;9.80;94.70
28247;DHT22;66191;53.178;22.058;2023-04-30T05:17:20;9.80;94.70
28247;DHT22;66191;53.178;22.058;2023-04-30T05:19:51;9.80;94.90
28247;DHT22;66191;53.178;22.058;2023-04-30T05:22:23;9.90;94.80
28247;DHT22;66191;53.178;22.058;2023-04-30T05:24:56;9.80;94.60
28247;DHT22;66191;53.178;22.058;2023-04-30T05:27:27;9.80;94.60
28247;DHT22;66191;53.178;22.058;2023-04-30T05:29:58;9.80;94.80
28247;DHT22;66191;53.178;22.058;2023-04-30T05:32:32;9.80;94.70
28247;DHT22;66191;53.178;22.058;2023-04-30T05:35:02;9.80;94.70
28247;DHT22;66191;53.178;22.058;2023-04-30T05:37:33;9.80;94.70
28247;DHT22;66191;53.178;22.058;2023-04-30T05:40:04;9.80;94.50
28247;DHT22;66191;53.178;22.058;2023-04-30T05:42:36;9.90;94.50
28247;DHT22;66191;53.178;22.058;2023-04-30T05:45:07;9.90;94.10
28247;DHT22;66191;53.178;22.058;2023-04-30T05:47:41;9.90;94.20
28247;DHT22;66191;53.178;22.058;2023-04-30T05:50:12;9.90;94.20
28247;DHT22;66191;53.178;22.058;2023-04-30T05:52:44;9.90;94.10
28247;DHT22;66191;53.178;22.058;2023-04-30T05:55:14;9.90;93.90
28247;DHT22;66191;53.178;22.058;2023-04-30T05:57:47;9.90;93.80
28247;DHT22;66191;53.178;22.058;2023-04-30T06:00:18;10.00;93.90
28247;DHT22;66191;53.178;22.058;2023-04-30T06:02:52;9.90;93.60
28247;DHT22;66191;53.178;22.058;2023-04-30T06:05:22;9.90;93.90
28247;DHT22;66191;53.178;22.058;2023-04-30T06:07:53;9.90;93.80
28247;DHT22;66191;53.178;22.058;2023-04-30T06:10:24;10.00;93.70
28247;DHT22;66191;53.178;22.058;2023-04-30T06:12:55;10.00;93.70
28247;DHT22;66191;53.178;22.058;2023-04-30T06:15:26;10.10;93.30
28247;DHT22;66191;53.178;22.058;2023-04-30T06:17:59;10.20;92.00
28247;DHT22;66191;53.178;22.058;2023-04-30T06:20:31;10.20;91.60
28247;DHT22;66191;53.178;22.058;2023-04-30T06:23:02;10.30;90.80
28247;DHT22;66191;53.178;22.058;2023-04-30T06:25:33;10.30;90.80
28247;DHT22;66191;53.178;22.058;2023-04-30T06:28:04;10.40;91.30
28247;DHT22;66191;53.178;22.058;2023-04-30T06:30:36;10.50;91.20
28247;DHT22;66191;53.178;22.058;2023-04-30T06:33:11;10.60;90.70
28247;DHT22;66191;53.178;22.058;2023-04-30T06:35:42;10.60;88.70
28247;DHT22;66191;53.178;22.058;2023-04-30T06:38:13;10.60;89.00
28247;DHT22;66191;53.178;22.058;2023-04-30T06:40:44;10.70;90.00
28247;DHT22;66191;53.178;22.058;2023-04-30T06:43:15;10.80;90.10
28247;DHT22;66191;53.178;22.058;2023-04-30T06:45:46;10.90;89.20
28247;DHT22;66191;53.178;22.058;2023-04-30T06:48:20;11.00;88.00
28247;DHT22;66191;53.178;22.058;2023-04-30T06:50:51;11.00;87.00
28247;DHT22;66191;53.178;22.058;2023-04-30T06:53:23;11.10;85.60
28247;DHT22;66191;53.178;22.058;2023-04-30T06:55:53;11.10;82.50
28247;DHT22;66191;53.178;22.058;2023-04-30T06:58:25;11.10;82.60
28247;DHT22;66191;53.178;22.058;2023-04-30T07:00:55;11.20;81.60
28247;DHT22;66191;53.178;22.058;2023-04-30T07:03:29;11.20;81.10
28247;DHT22;66191;53.178;22.058;2023-04-30T07:06:00;11.20;82.70
28247;DHT22;66191;53.178;22.058;2023-04-30T07:08:31;11.20;82.30
28247;DHT22;66191;53.178;22.058;2023-04-30T07:11:01;11.30;83.00
28247;DHT22;66191;53.178;22.058;2023-04-30T07:13:33;11.30;82.10
28247;DHT22;66191;53.178;22.058;2023-04-30T07:16:04;11.40;83.50
28247;DHT22;66191;53.178;22.058;2023-04-30T07:18:39;11.50;83.00
28247;DHT22;66191;53.178;22.058;2023-04-30T07:21:10;11.50;81.90
28247;DHT22;66191;53.178;22.058;2023-04-30T07:23:43;11.40;81.40
28247;DHT22;66191;53.178;22.058;2023-04-30T07:26:13;11.30;79.20
28247;DHT22;66191;53.178;22.058;2023-04-30T07:28:46;11.30;79.00
28247;DHT22;66191;53.178;22.058;2023-04-30T07:31:20;11.30;79.70
28247;DHT22;66191;53.178;22.058;2023-04-30T07:33:54;11.30;78.70
28247;DHT22;66191;53.178;22.058;2023-04-30T07:36:30;11.30;75.90
28247;DHT22;66191;53.178;22.058;2023-04-30T07:39:15;11.30;76.50
28247;DHT22;66191;53.178;22.058;2023-04-30T07:48:46;11.50;75.80
28247;DHT22;66191;53.178;22.058;2023-04-30T07:51:46;11.60;74.30
28247;DHT22;66191;53.178;22.058;2023-04-30T07:54:58;11.60;72.40
28247;DHT22;66191;53.178;22.058;2023-04-30T07:57:45;11.70;72.40
28247;DHT22;66191;53.178;22.058;2023-04-30T08:00:29;11.80;71.00
28247;DHT22;66191;53.178;22.058;2023-04-30T08:06:04;11.90;69.10
28247;DHT22;66191;53.178;22.058;2023-04-30T08:08:50;11.90;70.30
28247;DHT22;66191;53.178;22.058;2023-04-30T08:11:41;12.00;69.00
28247;DHT22;66191;53.178;22.058;2023-04-30T08:14:17;12.00;69.50
28247;DHT22;66191;53.178;22.058;2023-04-30T08:17:05;12.00;67.00
28247;DHT22;66191;53.178;22.058;2023-04-30T08:19:40;11.90;67.10
28247;DHT22;66191;53.178;22.058;2023-04-30T08:22:38;12.00;66.80
28247;DHT22;66191;53.178;22.058;2023-04-30T08:25:15;12.00;66.10
28247;DHT22;66191;53.178;22.058;2023-04-30T08:28:05;12.00;64.80
28247;DHT22;66191;53.178;22.058;2023-04-30T08:30:45;12.00;63.50
28247;DHT22;66191;53.178;22.058;2023-04-30T08:33:41;11.90;61.00
28247;DHT22;66191;53.178;22.058;2023-04-30T08:37:02;11.90;61.00
28247;DHT22;66191;53.178;22.058;2023-04-30T08:39:37;11.90;60.00
28247;DHT22;66191;53.178;22.058;2023-04-30T08:42:24;11.90;60.60
28247;DHT22;66191;53.178;22.058;2023-04-30T08:45:19;11.90;59.90
28247;DHT22;66191;53.178;22.058;2023-04-30T08:47:58;11.90;60.60
28247;DHT22;66191;53.178;22.058;2023-04-30T08:50:46;12.00;60.80
28247;DHT22;66191;53.178;22.058;2023-04-30T08:53:25;11.90;60.20
28247;DHT22;66191;53.178;22.058;2023-04-30T08:56:02;12.00;60.30
28247;DHT22;66191;53.178;22.058;2023-04-30T08:58:48;12.00;59.50
28247;DHT22;66191;53.178;22.058;2023-04-30T09:01:38;12.10;58.00
28247;DHT22;66191;53.178;22.058;2023-04-30T09:04:30;12.10;60.40
28247;DHT22;66191;53.178;22.058;2023-04-30T09:07:02;12.10;59.10
28247;DHT22;66191;53.178;22.058;2023-04-30T09:09:58;12.20;58.60
28247;DHT22;66191;53.178;22.058;2023-04-30T09:12:41;12.30;60.30
28247;DHT22;66191;53.178;22.058;2023-04-30T09:15:31;12.30;61.20
28247;DHT22;66191;53.178;22.058;2023-04-30T09:18:37;12.40;60.00
28247;DHT22;66191;53.178;22.058;2023-04-30T09:21:13;12.40;60.40
28247;DHT22;66191;53.178;22.058;2023-04-30T09:24:03;12.40;59.70
28247;DHT22;66191;53.178;22.058;2023-04-30T09:27:22;12.40;60.10
28247;DHT22;66191;53.178;22.058;2023-04-30T09:30:05;12.50;57.80
28247;DHT22;66191;53.178;22.058;2023-04-30T09:35:57;12.60;58.10
28247;DHT22;66191;53.178;22.058;2023-04-30T09:39:12;12.60;56.40
28247;DHT22;66191;53.178;22.058;2023-04-30T09:42:14;12.60;57.20
28247;DHT22;66191;53.178;22.058;2023-04-30T09:48:22;12.70;56.90
28247;DHT22;66191;53.178;22.058;2023-04-30T09:55:41;12.70;56.00
28247;DHT22;66191;53.178;22.058;2023-04-30T09:59:04;12.90;54.40
28247;DHT22;66191;53.178;22.058;2023-04-30T10:10:35;12.80;54.20
28247;DHT22;66191;53.178;22.058;2023-04-30T10:13:28;12.80;54.20
28247;DHT22;66191;53.178;22.058;2023-04-30T10:16:48;12.90;53.40
28247;DHT22;66191;53.178;22.058;2023-04-30T10:20:02;12.90;53.40
28247;DHT22;66191;53.178;22.058;2023-04-30T10:23:06;12.90;54.80
28247;DHT22;66191;53.178;22.058;2023-04-30T10:25:58;12.90;54.30
28247;DHT22;66191;53.178;22.058;2023-04-30T10:28:47;13.00;52.70
28247;DHT22;66191;53.178;22.058;2023-04-30T10:31:38;13.10;52.60
28247;DHT22;66191;53.178;22.058;2023-04-30T10:34:47;13.20;51.70
28247;DHT22;66191;53.178;22.058;2023-04-30T10:37:58;13.20;52.30
28247;DHT22;66191;53.178;22.058;2023-04-30T10:41:30;13.10;51.20
28247;DHT22;66191;53.178;22.058;2023-04-30T10:44:28;13.20;52.70
28247;DHT22;66191;53.178;22.058;2023-04-30T10:47:26;13.20;52.30
28247;DHT22;66191;53.178;22.058;2023-04-30T10:50:07;13.30;51.40
28247;DHT22;66191;53.178;22.058;2023-04-30T10:53:02;13.30;51.90
28247;DHT22;66191;53.178;22.058;2023-04-30T10:55:56;13.40;52.10
28247;DHT22;66191;53.178;22.058;2023-04-30T11:02:14;13.40;50.20
28247;DHT22;66191;53.178;22.058;2023-04-30T11:05:33;13.50;51.30
28247;DHT22;66191;53.178;22.058;2023-04-30T11:08:52;13.50;51.00
28247;DHT22;66191;53.178;22.058;2023-04-30T11:12:13;13.60;51.10
28247;DHT22;66191;53.178;22.058;2023-04-30T11:15:52;13.60;50.90
28247;DHT22;66191;53.178;22.058;2023-04-30T11:18:30;13.70;48.80
28247;DHT22;66191;53.178;22.058;2023-04-30T11:21:19;13.70;49.30
28247;DHT22;66191;53.178;22.058;2023-04-30T11:27:31;13.60;50.40
28247;DHT22;66191;53.178;22.058;2023-04-30T11:30:45;13.70;50.60
28247;DHT22;66191;53.178;22.058;2023-04-30T11:33:47;13.70;51.30
28247;DHT22;66191;53.178;22.058;2023-04-30T11:36:23;13.70;51.10
28247;DHT22;66191;53.178;22.058;2023-04-30T11:42:02;13.60;50.10
28247;DHT22;66191;53.178;22.058;2023-04-30T11:45:10;13.70;50.60
28247;DHT22;66191;53.178;22.058;2023-04-30T11:48:11;13.80;50.80
28247;DHT22;66191;53.178;22.058;2023-04-30T11:51:21;13.80;51.10
28247;DHT22;66191;53.178;22.058;2023-04-30T11:54:57;13.90;50.00
28247;DHT22;66191;53.178;22.058;2023-04-30T11:58:00;13.90;50.00
28247;DHT22;66191;53.178;22.058;2023-04-30T12:01:00;14.00;49.00
28247;DHT22;66191;53.178;22.058;2023-04-30T12:04:00;14.00;49.30
28247;DHT22;66191;53.178;22.058;2023-04-30T12:06:45;14.00;49.20
28247;DHT22;66191;53.178;22.058;2023-04-30T12:10:18;14.00;47.60
28247;DHT22;66191;53.178;22.058;2023-04-30T12:13:04;14.00;48.40
28247;DHT22;66191;53.178;22.058;2023-04-30T12:16:09;14.10;48.90
28247;DHT22;66191;53.178;22.058;2023-04-30T12:19:13;14.10;47.70
28247;DHT22;66191;53.178;22.058;2023-04-30T12:22:04;14.10;48.00
28247;DHT22;66191;53.178;22.058;2023-04-30T12:28:16;14.10;48.30
28247;DHT22;66191;53.178;22.058;2023-04-30T12:30:51;14.10;49.20
28247;DHT22;66191;53.178;22.058;2023-04-30T12:33:29;14.20;49.90
28247;DHT22;66191;53.178;22.058;2023-04-30T12:36:38;14.30;49.00
28247;DHT22;66191;53.178;22.058;2023-04-30T12:39:36;14.30;47.90
28247;DHT22;66191;53.178;22.058;2023-04-30T12:42:36;14.30;48.70
28247;DHT22;66191;53.178;22.058;2023-04-30T12:48:14;14.30;47.60
28247;DHT22;66191;53.178;22.058;2023-04-30T12:51:19;14.30;48.10
28247;DHT22;66191;53.178;22.058;2023-04-30T12:54:38;14.40;45.90
28247;DHT22;66191;53.178;22.058;2023-04-30T12:57:25;14.40;46.30
28247;DHT22;66191;53.178;22.058;2023-04-30T13:00:08;14.40;46.80
28247;DHT22;66191;53.178;22.058;2023-04-30T13:03:05;14.30;45.50
28247;DHT22;66191;53.178;22.058;2023-04-30T13:05:54;14.30;45.80
28247;DHT22;66191;53.178;22.058;2023-04-30T13:09:16;14.30;46.40
28247;DHT22;66191;53.178;22.058;2023-04-30T13:12:20;14.40;47.20
28247;DHT22;66191;53.178;22.058;2023-04-30T13:15:20;14.40;46.60
28247;DHT22;66191;53.178;22.058;2023-04-30T13:18:09;14.40;46.00
28247;DHT22;66191;53.178;22.058;2023-04-30T13:20:52;14.30;44.50
28247;DHT22;66191;53.178;22.058;2023-04-30T13:23:36;14.30;43.90
28247;DHT22;66191;53.178;22.058;2023-04-30T13:26:28;14.20;42.50
28247;DHT22;66191;53.178;22.058;2023-04-30T13:29:44;14.20;43.10
28247;DHT22;66191;53.178;22.058;2023-04-30T13:32:17;14.20;43.80
28247;DHT22;66191;53.178;22.058;2023-04-30T13:34:55;14.20;44.10
28247;DHT22;66191;53.178;22.058;2023-04-30T13:37:35;14.20;45.20
28247;DHT22;66191;53.178;22.058;2023-04-30T13:40:31;14.30;44.40
28247;DHT22;66191;53.178;22.058;2023-04-30T13:43:18;14.20;46.10
28247;DHT22;66191;53.178;22.058;2023-04-30T13:46:26;14.30;45.70
28247;DHT22;66191;53.178;22.058;2023-04-30T13:49:17;14.30;45.10
28247;DHT22;66191;53.178;22.058;2023-04-30T13:52:19;14.30;45.60
28247;DHT22;66191;53.178;22.058;2023-04-30T13:55:09;14.20;45.80
28247;DHT22;66191;53.178;22.058;2023-04-30T13:57:56;14.20;46.20
28247;DHT22;66191;53.178;22.058;2023-04-30T14:00:45;14.20;47.00
28247;DHT22;66191;53.178;22.058;2023-04-30T14:03:46;14.20;46.20
28247;DHT22;66191;53.178;22.058;2023-04-30T14:06:28;14.20;45.90
28247;DHT22;66191;53.178;22.058;2023-04-30T14:09:07;14.20;45.40
28247;DHT22;66191;53.178;22.058;2023-04-30T14:11:48;14.20;45.00
28247;DHT22;66191;53.178;22.058;2023-04-30T14:14:20;14.20;45.70
28247;DHT22;66191;53.178;22.058;2023-04-30T14:16:57;14.20;45.30
28247;DHT22;66191;53.178;22.058;2023-04-30T14:22:53;14.20;45.90
28247;DHT22;66191;53.178;22.058;2023-04-30T14:25:56;14.10;46.20
28247;DHT22;66191;53.178;22.058;2023-04-30T14:28:31;14.20;45.50
28247;DHT22;66191;53.178;22.058;2023-04-30T14:31:10;14.10;45.40
28247;DHT22;66191;53.178;22.058;2023-04-30T14:33:48;14.20;46.10
28247;DHT22;66191;53.178;22.058;2023-04-30T14:37:10;14.20;45.90
28247;DHT22;66191;53.178;22.058;2023-04-30T14:39:52;14.10;44.80
28247;DHT22;66191;53.178;22.058;2023-04-30T14:42:34;14.00;44.00
28247;DHT22;66191;53.178;22.058;2023-04-30T14:45:15;14.00;43.90
28247;DHT22;66191;53.178;22.058;2023-04-30T14:48:16;14.00;44.70
28247;DHT22;66191;53.178;22.058;2023-04-30T14:51:09;14.00;45.00
28247;DHT22;66191;53.178;22.058;2023-04-30T14:53:46;14.00;45.40
28247;DHT22;66191;53.178;22.058;2023-04-30T14:56:30;14.00;46.10
28247;DHT22;66191;53.178;22.058;2023-04-30T14:59:08;13.90;47.10
28247;DHT22;66191;53.178;22.058;2023-04-30T15:01:48;13.90;46.20
28247;DHT22;66191;53.178;22.058;2023-04-30T15:04:20;13.90;45.60
28247;DHT22;66191;53.178;22.058;2023-04-30T15:07:03;13.90;46.30
28247;DHT22;66191;53.178;22.058;2023-04-30T15:09:38;13.80;45.30
28247;DHT22;66191;53.178;22.058;2023-04-30T15:12:26;13.80;46.30
28247;DHT22;66191;53.178;22.058;2023-04-30T15:15:26;13.90;44.70
28247;DHT22;66191;53.178;22.058;2023-04-30T15:18:04;13.80;45.40
28247;DHT22;66191;53.178;22.058;2023-04-30T15:20:44;13.70;45.60
28247;DHT22;66191;53.178;22.058;2023-04-30T15:23:29;13.80;49.20
28247;DHT22;66191;53.178;22.058;2023-04-30T15:26:10;13.80;47.40
28247;DHT22;66191;53.178;22.058;2023-04-30T15:28:47;13.70;46.90
28247;DHT22;66191;53.178;22.058;2023-04-30T15:31:23;13.60;48.00
28247;DHT22;66191;53.178;22.058;2023-04-30T15:34:02;13.60;47.60
28247;DHT22;66191;53.178;22.058;2023-04-30T15:36:39;13.60;46.20
28247;DHT22;66191;53.178;22.058;2023-04-30T15:39:22;13.60;46.90
28247;DHT22;66191;53.178;22.058;2023-04-30T15:42:05;13.60;46.90
28247;DHT22;66191;53.178;22.058;2023-04-30T15:44:52;13.50;46.90
28247;DHT22;66191;53.178;22.058;2023-04-30T15:47:32;13.50;46.60
28247;DHT22;66191;53.178;22.058;2023-04-30T15:50:20;13.40;46.00
28247;DHT22;66191;53.178;22.058;2023-04-30T15:53:08;13.30;46.00
28247;DHT22;66191;53.178;22.058;2023-04-30T15:55:42;13.30;46.50
28247;DHT22;66191;53.178;22.058;2023-04-30T15:58:15;13.30;46.60
28247;DHT22;66191;53.178;22.058;2023-04-30T16:00:49;13.30;47.60
28247;DHT22;66191;53.178;22.058;2023-04-30T16:03:26;13.30;47.40
28247;DHT22;66191;53.178;22.058;2023-04-30T16:06:01;13.30;48.30
28247;DHT22;66191;53.178;22.058;2023-04-30T16:08:41;13.20;48.30
28247;DHT22;66191;53.178;22.058;2023-04-30T16:11:16;13.20;48.90
28247;DHT22;66191;53.178;22.058;2023-04-30T16:14:05;13.10;50.00
28247;DHT22;66191;53.178;22.058;2023-04-30T16:19:40;12.90;50.40
28247;DHT22;66191;53.178;22.058;2023-04-30T16:22:24;12.90;51.30
28247;DHT22;66191;53.178;22.058;2023-04-30T16:24:55;12.80;52.00
28247;DHT22;66191;53.178;22.058;2023-04-30T16:30:29;12.70;50.70
28247;DHT22;66191;53.178;22.058;2023-04-30T16:33:03;12.60;51.30
28247;DHT22;66191;53.178;22.058;2023-04-30T16:35:42;12.60;51.40
28247;DHT22;66191;53.178;22.058;2023-04-30T16:38:21;12.50;51.20
28247;DHT22;66191;53.178;22.058;2023-04-30T16:40:55;12.40;51.10
28247;DHT22;66191;53.178;22.058;2023-04-30T16:43:32;12.40;51.90
28247;DHT22;66191;53.178;22.058;2023-04-30T16:46:04;12.30;51.70
28247;DHT22;66191;53.178;22.058;2023-04-30T16:48:36;12.30;51.70
28247;DHT22;66191;53.178;22.058;2023-04-30T16:51:15;12.20;51.00
28247;DHT22;66191;53.178;22.058;2023-04-30T16:53:58;12.10;51.50
28247;DHT22;66191;53.178;22.058;2023-04-30T16:56:30;12.00;50.80
28247;DHT22;66191;53.178;22.058;2023-04-30T16:59:20;11.90;51.50
28247;DHT22;66191;53.178;22.058;2023-04-30T17:01:52;11.90;51.60
28247;DHT22;66191;53.178;22.058;2023-04-30T17:04:30;11.90;52.10
28247;DHT22;66191;53.178;22.058;2023-04-30T17:07:06;11.80;51.90
28247;DHT22;66191;53.178;22.058;2023-04-30T17:09:43;11.70;51.40
28247;DHT22;66191;53.178;22.058;2023-04-30T17:12:15;11.70;51.90
28247;DHT22;66191;53.178;22.058;2023-04-30T17:14:46;11.70;52.40
28247;DHT22;66191;53.178;22.058;2023-04-30T17:17:19;11.60;52.50
28247;DHT22;66191;53.178;22.058;2023-04-30T17:19:55;11.60;53.00
28247;DHT22;66191;53.178;22.058;2023-04-30T17:22:33;11.50;53.30
28247;DHT22;66191;53.178;22.058;2023-04-30T17:25:05;11.50;53.90
28247;DHT22;66191;53.178;22.058;2023-04-30T17:27:36;11.40;53.70
28247;DHT22;66191;53.178;22.058;2023-04-30T17:30:10;11.40;53.90
28247;DHT22;66191;53.178;22.058;2023-04-30T17:32:46;11.30;54.00
28247;DHT22;66191;53.178;22.058;2023-04-30T17:35:17;11.20;54.40
28247;DHT22;66191;53.178;22.058;2023-04-30T17:37:53;11.10;54.70